Time;durP1;ratioP1;P1;durP2;ratioP2;P2;SDS_P1;SDS_P2;PMS_P1;PMS_P2;Temp;Humidity;BMP_temperature;BMP_pressure;BME280_temperature;BME280_humidity;BME280_pressure;Samples;Min_cycle;Max_cycle;Signal;HPM_P1;HPM_P2
2022/09/12 00:01:39;;;;;;;15.80;10.40;;;;;;;12.45;100.00;98829.56;4300012;81;21503;-82
2022/09/12 00:07:41;;;;;;;11.68;9.40;;;;;;;12.49;100.00;98831.16;4311753;81;21916;-82
2022/09/12 00:13:43;;;;;;;14.55;10.03;;;;;;;12.50;100.00;98830.55;4303815;81;21060;-82
2022/09/12 00:19:45;;;;;;;14.28;10.20;;;;;;;12.46;100.00;98833.31;4302871;81;21499;-84
2022/09/12 00:25:48;;;;;;;16.73;10.48;;;;;;;12.45;100.00;98834.47;4304406;82;21031;-82
2022/09/12 00:31:49;;;;;;;18.37;12.03;;;;;;;12.47;100.00;98828.01;4290441;81;21060;-83
2022/09/12 00:37:51;;;;;;;15.70;11.75;;;;;;;12.50;100.00;98836.03;4294936;82;20988;-82
2022/09/12 00:44:02;;;;;;;21.48;11.80;;;;;;;12.52;100.00;98832.33;4270336;82;21056;-83
2022/09/12 00:50:12;;;;;;;18.65;12.25;;;;;;;12.55;100.00;98829.59;4285925;81;21024;-82
2022/09/12 00:56:16;;;;;;;19.12;12.82;;;;;;;12.55;100.00;98837.03;4333603;81;21035;-82
2022/09/12 01:02:18;;;;;;;19.87;12.53;;;;;;;12.51;100.00;98838.39;4301858;81;21043;-82
2022/09/12 01:15:29;;;;;;;20.97;11.90;;;;;;;12.40;100.00;98851.93;4207905;82;20975;-82
2022/09/12 01:22:12;;;;;;;17.20;12.80;;;;;;;12.36;100.00;98851.12;4301153;82;21024;-82
2022/09/12 01:28:46;;;;;;;18.67;12.47;;;;;;;12.30;100.00;98849.36;4393084;80;21610;-83
2022/09/12 01:35:19;;;;;;;18.42;11.90;;;;;;;12.26;100.00;98845.05;4438801;79;20979;-83
2022/09/12 01:42:09;;;;;;;20.02;13.25;;;;;;;12.22;100.00;98848.34;4386174;79;21021;-82
2022/09/12 01:48:21;;;;;;;18.87;12.80;;;;;;;12.20;100.00;98837.00;4442373;79;21018;-83
2022/09/12 01:54:32;;;;;;;22.58;13.22;;;;;;;12.21;100.00;98842.67;4309579;80;21062;-83
2022/09/12 02:00:42;;;;;;;21.05;13.10;;;;;;;12.19;100.00;98851.30;4434760;79;20992;-82
2022/09/12 02:07:09;;;;;;;18.40;12.70;;;;;;;12.15;100.00;98855.21;4328240;82;21858;-84
2022/09/12 02:13:16;;;;;;;17.10;12.58;;;;;;;12.14;100.00;98859.11;4393663;79;21047;-83
2022/09/12 02:19:23;;;;;;;;;;;;;;;12.12;100.00;98856.75;4438322;79;20995;-82
2022/09/12 02:25:28;;;;;;;17.97;12.63;;;;;;;12.09;100.00;98855.39;4445704;79;20151;-83
2022/09/12 02:31:41;;;;;;;17.10;13.05;;;;;;;12.06;100.00;98856.14;4330191;80;21023;-83
2022/09/12 02:38:05;;;;;;;19.67;14.33;;;;;;;12.03;100.00;98851.43;4429297;79;21019;-83
2022/09/12 02:44:06;;;;;;;24.67;16.82;;;;;;;11.98;100.00;98841.63;4333186;80;21407;-83
2022/09/12 02:50:09;;;;;;;23.52;15.80;;;;;;;11.95;100.00;98842.40;4435993;79;21037;-83
2022/09/12 02:56:21;;;;;;;20.90;15.28;;;;;;;11.92;100.00;98839.64;4438924;79;21501;-82
2022/09/12 03:02:52;;;;;;;20.17;15.03;;;;;;;11.90;100.00;98842.00;4425379;79;21086;-83
2022/09/12 03:09:12;;;;;;;20.52;14.58;;;;;;;11.89;100.00;98835.72;4442318;79;20975;-83
2022/09/12 03:15:31;;;;;;;22.52;14.70;;;;;;;11.88;100.00;98842.97;4347349;79;25323;-83
2022/09/12 03:21:47;;;;;;;23.40;15.10;;;;;;;11.86;100.00;98842.56;4253776;82;29543;-83
2022/09/12 03:28:11;;;;;;;21.00;15.60;;;;;;;11.84;100.00;98844.32;4203707;83;21577;-83
2022/09/12 03:34:13;;;;;;;18.05;13.53;;;;;;;11.81;100.00;98848.41;4203613;83;21066;-84
2022/09/12 03:40:14;;;;;;;18.02;13.58;;;;;;;11.77;100.00;98852.54;4211081;83;21565;-84
2022/09/12 03:46:16;;;;;;;19.23;14.70;;;;;;;11.74;100.00;98847.03;4208602;83;21072;-84
2022/09/12 03:52:18;;;;;;;18.10;14.20;;;;;;;11.72;100.00;98863.08;4110366;85;21038;-83
2022/09/12 03:58:21;;;;;;;21.48;14.68;;;;;;;11.70;100.00;98864.06;4084340;85;21093;-83
2022/09/12 04:04:22;;;;;;;20.15;14.15;;;;;;;11.69;100.00;98878.35;4082669;85;21040;-84
2022/09/12 04:10:24;;;;;;;23.27;14.28;;;;;;;11.71;100.00;98875.22;4143299;85;21098;-83
2022/09/12 04:16:27;;;;;;;19.00;13.83;;;;;;;11.66;100.00;98879.13;4077401;85;21101;-84
2022/09/12 04:22:30;;;;;;;18.70;15.03;;;;;;;11.63;100.00;98874.41;4078189;85;21650;-84
2022/09/12 04:28:33;;;;;;;22.52;15.83;;;;;;;11.62;100.00;98876.91;4073857;86;21076;-84
2022/09/12 04:34:36;;;;;;;25.05;16.70;;;;;;;11.62;100.00;98881.63;4069880;86;21040;-85
2022/09/12 04:40:37;;;;;;;23.45;17.05;;;;;;;11.59;100.00;98883.77;4071579;86;21004;-83
2022/09/12 04:46:44;;;;;;;22.15;15.72;;;;;;;11.60;100.00;98893.55;4070193;86;21064;-83
2022/09/12 04:52:56;;;;;;;24.50;16.93;;;;;;;11.61;100.00;98893.16;4071705;86;21042;-82
2022/09/12 05:05:30;;;;;;;25.77;17.30;;;;;;;11.77;100.00;98903.27;4103277;85;21504;-83
2022/09/12 05:11:35;;;;;;;22.65;17.75;;;;;;;11.90;100.00;98907.84;4204625;83;21023;-82
2022/09/12 05:17:36;;;;;;;21.52;16.42;;;;;;;11.98;100.00;98912.19;4200331;83;21478;-83
2022/09/12 05:23:38;;;;;;;21.05;17.02;;;;;;;11.96;100.00;98913.94;4213191;83;21129;-84
2022/09/12 05:29:41;;;;;;;20.77;16.48;;;;;;;11.96;100.00;98921.38;4213206;83;21050;-83
2022/09/12 05:35:51;;;;;;;22.80;17.12;;;;;;;11.93;100.00;98931.75;4108899;85;21027;-84
2022/09/12 05:41:55;;;;;;;25.60;16.93;;;;;;;11.91;100.00;98939.00;4107727;85;21114;-83
2022/09/12 05:47:56;;;;;;;20.88;16.17;;;;;;;11.93;100.00;98938.00;4041546;86;21103;-81
2022/09/12 05:54:02;;;;;;;22.13;16.70;;;;;;;11.92;100.00;98937.81;4211807;83;21673;-83
2022/09/12 06:00:08;;;;;;;20.90;15.68;;;;;;;11.97;100.00;98938.02;4216071;83;21107;-82
2022/09/12 06:06:17;;;;;;;20.82;15.58;;;;;;;12.04;100.00;98942.19;4218478;83;20992;-83
2022/09/12 06:12:36;;;;;;;19.92;14.78;;;;;;;12.01;100.00;98943.72;4244465;83;22212;-82
2022/09/12 06:18:40;;;;;;;21.23;14.10;;;;;;;12.05;100.00;98945.92;4203859;83;21614;-82
2022/09/12 06:24:42;;;;;;;19.02;12.95;;;;;;;12.04;100.00;98951.19;4172361;83;21110;-83
2022/09/12 06:30:45;;;;;;;17.52;13.35;;;;;;;12.06;100.00;98955.71;4042963;86;21468;-82
2022/09/12 06:36:48;;;;;;;15.08;10.20;;;;;;;12.12;100.00;98956.91;3994236;87;21089;-81
2022/09/12 06:42:52;;;;;;;14.07;9.73;;;;;;;12.15;100.00;98960.86;4119852;85;21431;-82
2022/09/12 06:48:58;;;;;;;17.37;10.32;;;;;;;12.27;100.00;98957.18;4115611;85;21071;-82
2022/09/12 06:55:00;;;;;;;18.98;10.05;;;;;;;12.36;100.00;98958.97;4037838;86;21147;-83
2022/09/12 07:01:21;;;;;;;13.72;8.43;;;;;;;12.53;100.00;98966.47;4102206;85;21122;-85
2022/09/12 07:07:23;;;;;;;18.67;8.50;;;;;;;12.62;100.00;98971.61;4126395;85;21019;-83
2022/09/12 07:13:24;;;;;;;13.83;8.83;;;;;;;12.68;100.00;98970.05;4126445;85;21058;-82
2022/09/12 07:19:25;;;;;;;12.90;8.25;;;;;;;12.81;100.00;98970.47;4124918;85;20977;-82
2022/09/12 07:25:27;;;;;;;9.33;6.40;;;;;;;12.92;100.00;98970.66;4153901;83;21079;-82
2022/09/12 07:31:30;;;;;;;10.10;8.33;;;;;;;12.96;100.00;98977.54;4123141;85;21050;-81
2022/09/12 07:37:31;;;;;;;9.48;6.92;;;;;;;12.88;100.00;98987.74;4071792;86;21103;-82
2022/09/12 07:43:33;;;;;;;9.65;6.05;;;;;;;12.93;100.00;98994.81;4084829;86;21065;-82
2022/09/12 07:49:36;;;;;;;7.05;4.92;;;;;;;13.00;100.00;98990.71;4031066;86;21046;-81
2022/09/12 07:56:09;;;;;;;11.45;5.25;;;;;;;13.01;100.00;98990.35;4098812;85;21031;-82
2022/09/12 08:02:14;;;;;;;6.58;4.50;;;;;;;13.19;100.00;98990.34;4119265;85;21555;-82
2022/09/12 08:08:16;;;;;;;7.62;3.83;;;;;;;13.30;100.00;98996.63;4088960;86;21068;-82
2022/09/12 08:14:17;;;;;;;6.30;3.42;;;;;;;13.39;100.00;98995.67;4086708;86;21023;-85
2022/09/12 08:20:20;;;;;;;4.20;2.77;;;;;;;13.48;100.00;99005.10;4080383;86;21588;-82
2022/09/12 08:26:22;;;;;;;5.72;2.47;;;;;;;13.42;100.00;99005.88;4101297;86;20992;-81
2022/09/12 08:32:25;;;;;;;5.17;2.12;;;;;;;13.35;98.45;99000.38;4082174;86;21028;-82
2022/09/12 08:38:28;;;;;;;4.67;2.75;;;;;;;13.77;97.97;99005.26;4080614;86;21537;-82
2022/09/12 08:44:47;;;;;;;5.60;2.33;;;;;;;13.96;97.57;99002.08;4077867;85;22031;-82
2022/09/12 08:50:49;;;;;;;5.78;2.52;;;;;;;14.22;95.62;98999.43;3998851;87;21041;-82
2022/09/12 08:56:55;;;;;;;6.08;2.50;;;;;;;14.45;95.37;98994.86;4132839;85;21031;-82
2022/09/12 09:03:05;;;;;;;4.57;2.80;;;;;;;14.64;96.30;98999.31;4107706;85;21066;-83
2022/09/12 09:09:39;;;;;;;6.35;4.05;;;;;;;15.32;96.08;98999.84;4116644;85;21354;-82
2022/09/12 09:16:01;;;;;;;5.53;2.12;;;;;;;16.18;90.46;99001.98;4119412;85;21051;-84
2022/09/12 09:22:34;;;;;;;6.37;2.80;;;;;;;16.62;87.74;98999.91;4132232;86;21487;-82
2022/09/12 09:28:46;;;;;;;5.90;2.37;;;;;;;17.09;88.89;99004.39;4077697;85;21041;-82
2022/09/12 09:34:48;;;;;;;5.03;2.50;;;;;;;16.98;85.28;98999.61;4091680;85;21146;-82
2022/09/12 09:41:21;;;;;;;4.03;2.45;;;;;;;16.38;82.61;99008.48;4065220;86;21029;-85
2022/09/12 09:47:25;;;;;;;6.25;2.52;;;;;;;17.23;84.97;99006.77;4095798;85;20993;-83
2022/09/12 09:53:36;;;;;;;3.50;2.12;;;;;;;19.13;86.62;98988.66;4090393;85;21009;-82
2022/09/12 09:59:39;;;;;;;6.40;2.10;;;;;;;20.34;81.95;98983.80;4088548;85;20994;-84
2022/09/12 10:05:55;;;;;;;4.95;2.47;;;;;;;19.77;79.10;98992.26;4088162;85;21016;-83
2022/09/12 10:12:00;;;;;;;5.83;2.40;;;;;;;20.57;80.23;98990.47;4116948;85;22015;-83
2022/09/12 10:18:13;;;;;;;5.90;2.10;;;;;;;21.31;76.58;98984.21;4078216;86;21080;-83
2022/09/12 10:24:42;;;;;;;6.70;1.65;;;;;;;20.30;73.24;98989.45;4077174;86;21033;-82
2022/09/12 10:30:49;;;;;;;4.15;1.70;;;;;;;20.61;71.09;98989.15;4108747;86;21544;-83
2022/09/12 10:36:55;;;;;;;2.98;1.42;;;;;;;21.27;69.29;98984.95;4106955;85;21055;-83
2022/09/12 10:43:06;;;;;;;2.98;1.75;;;;;;;21.89;68.41;98983.92;4073936;86;21068;-84
2022/09/12 10:49:36;;;;;;;5.75;1.55;;;;;;;20.89;63.97;98997.27;4050589;86;21027;-84
2022/09/12 11:03:15;;;;;;;2.77;1.20;;;;;;;21.55;64.00;98986.02;4108530;85;21070;-84
2022/09/12 11:16:29;;;;;;;2.62;1.30;;;;;;;21.90;60.47;98978.50;3874200;90;21114;-84
2022/09/12 11:23:30;;;;;;;2.27;1.60;;;;;;;21.43;61.29;98968.73;3870546;90;21165;-84
2022/09/12 11:29:55;;;;;;;3.10;1.35;;;;;;;20.86;60.31;98976.66;3898470;90;21207;-85
2022/09/12 11:35:58;;;;;;;1.95;1.27;;;;;;;19.97;61.18;98974.06;3908428;91;21163;-85
2022/09/12 11:42:04;;;;;;;2.50;1.60;;;;;;;19.55;60.40;98973.19;3899572;86;21224;-84
2022/09/12 11:48:17;;;;;;;3.10;1.65;;;;;;;19.41;61.22;98963.03;4086821;85;22202;-85
2022/09/12 11:54:35;;;;;;;3.17;1.37;;;;;;;19.30;61.68;98964.69;4082861;86;21095;-82
2022/09/12 12:00:48;;;;;;;4.55;1.70;;;;;;;19.03;60.14;98977.98;4092228;86;21654;-84
2022/09/12 12:07:10;;;;;;;2.45;1.70;;;;;;;18.85;60.54;98971.28;4081305;86;21124;-83
2022/09/12 12:13:42;;;;;;;2.55;1.52;;;;;;;18.90;60.73;98972.95;4065964;86;21980;-83
2022/09/12 12:19:46;;;;;;;2.80;1.20;;;;;;;18.76;59.73;98976.05;4081145;86;21845;-83
2022/09/12 12:25:56;;;;;;;3.10;1.70;;;;;;;18.64;58.93;98971.14;4031026;83;37574;-83
2022/09/12 12:32:06;;;;;;;3.40;2.02;;;;;;;18.50;59.18;98965.90;4048917;86;21610;-84
2022/09/12 12:38:37;;;;;;;5.83;1.60;;;;;;;18.34;59.12;98961.64;4047143;86;21639;-82
2022/09/12 12:44:50;;;;;;;4.20;1.50;;;;;;;18.31;58.96;98968.05;4049982;86;21056;-82
2022/09/12 12:50:52;;;;;;;5.65;1.42;;;;;;;18.10;58.45;98965.71;4007794;87;21125;-83
2022/09/12 12:57:15;;;;;;;2.47;1.30;;;;;;;18.02;58.69;98960.92;3990671;88;21109;-83
2022/09/12 13:03:31;;;;;;;2.65;1.22;;;;;;;17.95;58.75;98964.41;3988500;88;21016;-81
2022/09/12 13:16:34;;;;;;;1.67;1.52;;;;;;;17.73;58.34;98966.03;3992879;88;21066;-83
2022/09/12 13:29:20;;;;;;;3.60;1.30;;;;;;;17.63;58.21;98947.02;3948113;88;21079;-83
2022/09/12 13:35:31;;;;;;;3.47;1.30;;;;;;;17.83;58.38;98946.44;4046566;86;21132;-82
2022/09/12 13:41:52;;;;;;;1.67;1.20;;;;;;;17.94;58.78;98940.69;4043656;86;21037;-83
2022/09/12 13:47:59;;;;;;;1.80;1.35;;;;;;;17.90;57.69;98946.92;4052067;86;21032;-82
2022/09/12 13:54:05;;;;;;;3.62;1.37;;;;;;;17.59;57.66;98939.36;4053702;86;21018;-83
2022/09/12 14:00:19;;;;;;;5.83;1.42;;;;;;;17.40;57.60;98942.83;4053145;86;21006;-82
2022/09/12 14:06:22;;;;;;;4.22;1.40;;;;;;;17.07;58.36;98942.37;4052214;86;21045;-85
2022/09/12 14:12:36;;;;;;;2.20;1.17;;;;;;;17.03;58.97;98938.90;4053090;86;21045;-82
2022/09/12 14:18:40;;;;;;;2.67;1.20;;;;;;;17.13;59.55;98943.49;4047676;86;21054;-83
2022/09/12 14:24:42;;;;;;;2.42;1.30;;;;;;;17.18;58.63;98942.98;4057256;86;21036;-83
2022/09/12 14:31:03;;;;;;;3.40;1.50;;;;;;;17.25;57.79;98944.27;4102622;85;21366;-82
2022/09/12 14:37:06;;;;;;;4.15;1.60;;;;;;;17.29;57.19;98940.08;4109718;85;21048;-82
2022/09/12 14:43:33;;;;;;;2.85;1.62;;;;;;;17.33;57.33;98942.17;4013965;87;21556;-81
2022/09/12 14:49:36;;;;;;;3.72;2.15;;;;;;;17.31;58.72;98937.05;4001263;87;21053;-82
2022/09/12 14:55:58;;;;;;;3.50;1.42;;;;;;;17.24;58.46;98933.04;4026511;88;21565;-82
2022/09/12 15:02:25;;;;;;;14.73;2.22;;;;;;;17.20;58.09;98930.33;3957890;88;21075;-82
2022/09/12 15:08:33;;;;;;;2.87;1.90;;;;;;;17.20;58.75;98930.91;3916336;88;21063;-82
2022/09/12 15:14:35;;;;;;;2.27;1.22;;;;;;;17.12;57.68;98935.78;3963272;88;21387;-83
2022/09/12 15:20:45;;;;;;;3.30;1.30;;;;;;;17.03;57.89;98933.37;4011963;87;21185;-83
2022/09/12 15:26:52;;;;;;;2.08;1.17;;;;;;;16.91;58.52;98933.96;4011760;87;21085;-82
2022/09/12 15:32:58;;;;;;;2.35;1.27;;;;;;;16.84;58.63;98935.44;4015670;87;21633;-83
2022/09/12 15:39:02;;;;;;;3.47;2.05;;;;;;;16.74;59.61;98938.53;4018432;87;21122;-83
2022/09/12 15:45:24;;;;;;;1.65;1.12;;;;;;;16.67;60.55;98938.66;4020858;87;21049;-82
2022/09/12 15:51:26;;;;;;;5.33;1.45;;;;;;;16.55;60.74;98946.72;4000340;87;21728;-82
2022/09/12 15:57:30;;;;;;;2.05;1.40;;;;;;;16.49;61.33;98940.86;4015091;87;21058;-83
2022/09/12 16:03:32;;;;;;;2.35;1.30;;;;;;;16.42;62.39;98936.00;4024921;87;21070;-82
2022/09/12 16:09:33;;;;;;;2.90;1.37;;;;;;;16.34;63.75;98935.91;4012762;87;21010;-82
2022/09/12 16:15:36;;;;;;;4.17;1.60;;;;;;;16.23;64.07;98941.58;4022929;87;21046;-84
2022/09/12 16:21:37;;;;;;;4.00;1.47;;;;;;;16.14;64.90;98948.20;4011261;87;21605;-82
2022/09/12 16:27:39;;;;;;;5.20;1.62;;;;;;;16.02;65.94;98946.58;4024504;87;22083;-83
2022/09/12 16:33:40;;;;;;;3.08;2.10;;;;;;;15.78;66.12;98953.14;4008048;87;21034;-82
2022/09/12 16:39:42;;;;;;;2.47;1.62;;;;;;;15.74;66.68;98954.55;4018434;87;21069;-82
2022/09/12 16:45:44;;;;;;;3.08;2.00;;;;;;;15.76;67.66;98949.99;4014355;87;21052;-82
2022/09/12 16:51:46;;;;;;;2.52;1.87;;;;;;;15.66;68.19;98947.53;4023417;87;21173;-82
2022/09/12 16:57:48;;;;;;;4.83;1.92;;;;;;;15.68;68.73;98961.70;4011228;87;22246;-82
2022/09/12 17:03:56;;;;;;;5.20;1.85;;;;;;;15.68;69.60;98964.47;4016042;87;21082;-82
2022/09/12 17:10:26;;;;;;;2.47;1.92;;;;;;;15.59;69.57;98962.20;4002524;87;21481;-83
2022/09/12 17:16:13;;;;;;;3.40;2.00;;;;;;;15.55;70.99;98966.95;3998129;87;21601;-83
2022/09/12 17:22:14;;;;;;;2.95;1.95;;;;;;;15.47;71.24;98970.96;4009910;87;21728;-81
2022/09/12 17:28:17;;;;;;;6.35;2.60;;;;;;;15.34;71.25;98975.98;3991320;87;21272;-83
2022/09/12 17:34:22;;;;;;;7.78;2.27;;;;;;;15.27;71.32;98989.23;4017737;87;21795;-83
2022/09/12 17:40:26;;;;;;;3.27;1.95;;;;;;;15.07;71.28;98986.83;4000299;87;21082;-83
2022/09/12 17:46:36;;;;;;;3.95;2.10;;;;;;;14.90;71.42;98987.73;3985289;87;21069;-83
2022/09/12 17:52:38;;;;;;;5.67;2.65;;;;;;;14.73;72.06;98989.20;3999855;87;21618;-82
2022/09/12 17:58:39;;;;;;;4.22;2.30;;;;;;;14.50;73.90;98992.46;4006176;87;21626;-82
2022/09/12 18:04:47;;;;;;;3.83;2.58;;;;;;;14.29;73.90;99000.03;3994712;87;22092;-83
2022/09/12 18:10:50;;;;;;;10.03;3.35;;;;;;;13.99;74.60;99001.28;3985344;87;21098;-82
2022/09/12 18:16:52;;;;;;;7.37;3.30;;;;;;;14.04;75.49;99015.23;4002955;87;21503;-82
2022/09/12 18:22:54;;;;;;;5.42;3.20;;;;;;;14.07;76.54;99026.23;4058643;87;21121;-82
2022/09/12 18:28:57;;;;;;;8.85;3.42;;;;;;;14.07;77.20;99018.56;3892573;84;10000119;-83
2022/09/12 18:34:58;;;;;;;10.38;4.62;;;;;;;13.99;77.76;99018.37;4021882;87;21844;-83
2022/09/12 18:41:12;;;;;;;10.80;4.75;;;;;;;13.88;78.09;99018.98;4043238;86;21899;-83
2022/09/12 18:47:13;;;;;;;8.25;4.62;;;;;;;13.78;78.66;99027.45;4006808;87;20999;-82
2022/09/12 18:53:15;;;;;;;9.78;4.72;;;;;;;13.67;79.65;99036.30;3999622;87;21078;-83
2022/09/12 18:59:40;;;;;;;7.75;5.15;;;;;;;13.55;79.91;99035.91;4000151;89;21011;-82
2022/09/12 19:05:42;;;;;;;10.43;4.35;;;;;;;13.42;80.81;99028.64;3999914;87;21035;-82
2022/09/12 19:11:48;;;;;;;14.05;5.55;;;;;;;13.43;81.73;99037.11;3997901;87;21146;-82
2022/09/12 19:17:50;;;;;;;10.80;7.08;;;;;;;13.32;81.83;99021.78;4001164;87;21019;-82
2022/09/12 19:23:54;;;;;;;14.05;7.60;;;;;;;13.27;81.95;99028.45;3999683;87;21010;-83
2022/09/12 19:29:56;;;;;;;11.43;6.53;;;;;;;13.27;82.40;99025.70;3900136;86;9999995;-82
2022/09/12 19:36:08;;;;;;;13.15;7.00;;;;;;;13.29;82.65;99017.06;4054165;86;21001;-82
2022/09/12 19:42:11;;;;;;;11.20;5.72;;;;;;;13.28;83.52;99026.50;4045810;86;21088;-82
2022/09/12 19:48:13;;;;;;;11.12;6.08;;;;;;;13.26;84.12;99015.10;4056815;86;21054;-82
2022/09/12 19:54:15;;;;;;;11.80;5.65;;;;;;;13.06;83.98;99020.17;4052452;86;21092;-82
2022/09/12 20:00:16;;;;;;;10.18;5.85;;;;;;;13.01;84.57;99008.22;4057342;88;21537;-82
2022/09/12 20:06:20;;;;;;;8.53;5.65;;;;;;;12.81;84.67;99005.56;4053757;86;21088;-82
2022/09/12 20:12:21;;;;;;;11.48;6.03;;;;;;;12.68;85.05;98992.78;4056143;86;21128;-82
2022/09/12 20:18:25;;;;;;;10.30;6.03;;;;;;;12.57;85.58;98998.83;4052370;86;21049;-82
2022/09/12 20:24:27;;;;;;;7.83;5.70;;;;;;;12.58;86.54;98995.51;3945735;89;21055;-82
2022/09/12 20:30:30;;;;;;;9.00;5.70;;;;;;;12.57;87.07;98996.09;3976042;88;21001;-83
2022/09/12 20:36:32;;;;;;;8.83;5.67;;;;;;;12.60;87.50;98993.17;3997017;88;21055;-82
2022/09/12 20:42:34;;;;;;;9.68;5.80;;;;;;;12.51;87.59;98988.64;3969836;88;21095;-82
2022/09/12 20:48:37;;;;;;;14.65;5.60;;;;;;;12.49;88.26;98986.86;3968926;89;21996;-82
2022/09/12 20:54:39;;;;;;;8.43;5.45;;;;;;;12.35;88.23;98978.00;3924327;89;21121;-82
2022/09/12 21:00:50;;;;;;;9.78;5.17;;;;;;;12.30;88.69;98982.48;3959608;88;21537;-82
2022/09/12 21:06:52;;;;;;;7.90;5.35;;;;;;;12.28;88.81;98989.52;4027444;87;21115;-82
2022/09/12 21:12:53;;;;;;;10.70;6.05;;;;;;;12.13;89.06;98990.05;4029570;87;21461;-82
2022/09/12 21:18:58;;;;;;;9.73;6.05;;;;;;;11.92;89.67;98988.56;4028368;87;21045;-82
2022/09/12 21:25:00;;;;;;;9.60;5.97;;;;;;;11.75;89.49;98987.87;4026625;87;21129;-81
2022/09/12 21:31:01;;;;;;;14.05;6.03;;;;;;;11.77;90.28;98985.55;4023423;87;21109;-81
2022/09/12 21:37:03;;;;;;;9.43;6.55;;;;;;;11.72;90.60;98985.10;4021664;87;21140;-82
2022/09/12 21:43:05;;;;;;;11.50;4.97;;;;;;;11.57;90.76;98977.94;3997270;87;21653;-83
2022/09/12 21:49:06;;;;;;;8.33;5.58;;;;;;;11.53;91.31;98975.73;4001052;87;21531;-82
2022/09/12 21:55:09;;;;;;;15.25;6.12;;;;;;;11.45;90.95;98972.77;3998929;87;21122;-82
2022/09/12 22:01:11;;;;;;;11.53;6.90;;;;;;;11.22;90.87;98977.08;4000950;87;21093;-82
2022/09/12 22:07:13;;;;;;;8.63;5.78;;;;;;;11.16;91.37;98977.81;3996210;87;21082;-81
2022/09/12 22:13:14;;;;;;;10.23;6.95;;;;;;;11.01;91.01;98972.78;3994224;87;22013;-82
2022/09/12 22:19:17;;;;;;;15.68;6.62;;;;;;;10.87;91.61;98975.39;4000426;87;21106;-82
2022/09/12 22:25:22;;;;;;;11.30;6.60;;;;;;;10.75;91.90;98970.20;4005470;88;20995;-82
2022/09/12 22:31:22;;;;;;;14.00;6.35;;;;;;;10.65;91.97;98966.19;4013556;87;21122;-82
2022/09/12 22:37:23;;;;;;;14.40;6.95;;;;;;;10.40;92.00;98962.39;3990819;87;21056;-83
2022/09/12 22:43:25;;;;;;;14.73;7.65;;;;;;;10.32;92.40;98952.53;3995073;87;21070;-82
2022/09/12 22:49:27;;;;;;;12.18;7.00;;;;;;;10.29;92.60;98951.14;3997051;87;21010;-81
2022/09/12 22:55:29;;;;;;;12.18;5.97;;;;;;;10.24;92.92;98948.13;3996467;87;21066;-82
2022/09/12 23:01:31;;;;;;;16.55;7.08;;;;;;;10.21;93.08;98944.78;3996346;87;21137;-82
2022/09/12 23:07:33;;;;;;;9.10;6.60;;;;;;;10.12;93.14;98940.19;3997113;87;21058;-82
2022/09/12 23:13:35;;;;;;;11.57;6.17;;;;;;;10.00;92.87;98954.65;3998574;87;21569;-81
2022/09/12 23:19:37;;;;;;;10.05;7.00;;;;;;;9.80;93.19;98943.08;3996911;87;21015;-82
2022/09/12 23:25:39;;;;;;;11.53;6.70;;;;;;;9.84;93.91;98938.44;3995252;87;21109;-82
2022/09/12 23:31:40;;;;;;;11.20;6.72;;;;;;;9.75;93.56;98941.23;4007914;87;21002;-82
2022/09/12 23:37:41;;;;;;;12.30;5.95;;;;;;;9.72;93.98;98943.34;3997435;87;20983;-82
2022/09/12 23:43:44;;;;;;;10.30;5.95;;;;;;;9.66;94.25;98948.36;3995001;87;21612;-82
2022/09/12 23:49:46;;;;;;;13.25;6.60;;;;;;;9.70;94.83;98952.48;3997893;87;21003;-81
2022/09/12 23:55:48;;;;;;;11.12;6.83;;;;;;;9.76;95.07;98946.91;4001632;87;21149;-82
